Time;durP1;ratioP1;P1;durP2;ratioP2;P2;SDS_P1;SDS_P2;PMS_P1;PMS_P2;Temp;Humidity;BMP_temperature;BMP_pressure;BME280_temperature;BME280_humidity;BME280_pressure;Samples;Min_cycle;Max_cycle;Signal;HPM_P1;HPM_P2
2021/03/29 00:02:01;;;;;;;10.87;3.33;;;;;;;;;;5056831;28;20855;-82
2021/03/29 00:04:27;;;;;;;7.90;3.70;;;;;;;;;;5058524;28;20819;-84
2021/03/29 00:06:54;;;;;;;10.80;4.10;;;;;;;;;;5057209;28;20185;-81
2021/03/29 00:09:20;;;;;;;13.63;3.73;;;;;;;;;;5056976;28;20223;-79
2021/03/29 00:11:46;;;;;;;9.67;3.67;;;;;;;;;;5056865;28;20662;-80
2021/03/29 00:14:12;;;;;;;14.27;4.17;;;;;;;;;;5056309;28;20180;-79
2021/03/29 00:16:38;;;;;;;9.37;4.20;;;;;;;;;;5055851;28;20181;-81
2021/03/29 00:19:08;;;;;;;10.17;4.13;;;;;;;;;;5056201;28;20229;-79
2021/03/29 00:21:34;;;;;;;14.03;4.43;;;;;;;;;;5056134;28;20230;-81
2021/03/29 00:24:00;;;;;;;11.57;4.00;;;;;;;;;;5056003;28;20278;-80
2021/03/29 00:26:26;;;;;;;11.97;4.30;;;;;;;;;;5056098;28;20216;-80
2021/03/29 00:28:52;;;;;;;13.23;4.30;;;;;;;;;;5056244;28;20195;-80
2021/03/29 00:31:18;;;;;;;11.43;4.23;;;;;;;;;;5056621;28;20179;-80
2021/03/29 00:33:44;;;;;;;9.30;3.80;;;;;;;;;;5055599;28;20646;-80
2021/03/29 00:36:11;;;;;;;13.27;4.07;;;;;;;;;;5055711;28;20593;-80
2021/03/29 00:38:37;;;;;;;12.47;4.60;;;;;;;;;;5056316;28;20220;-80
2021/03/29 00:41:06;;;;;;;9.90;4.47;;;;;;;;;;5055264;28;20650;-79
2021/03/29 00:43:33;;;;;;;13.23;4.47;;;;;;;;;;5054782;28;20268;-79
2021/03/29 00:45:59;;;;;;;11.67;3.87;;;;;;;;;;5055562;28;20183;-80
2021/03/29 00:48:25;;;;;;;14.13;4.07;;;;;;;;;;5055069;28;20610;-79
2021/03/29 00:50:51;;;;;;;15.33;3.77;;;;;;;;;;5055094;28;20181;-80
2021/03/29 00:53:17;;;;;;;8.90;4.03;;;;;;;;;;5071609;28;20188;-79
2021/03/29 00:55:44;;;;;;;12.93;4.20;;;;;;;;;;5055658;28;20211;-79
2021/03/29 00:58:11;;;;;;;12.50;4.10;;;;;;;;;;5055559;28;20190;-80
2021/03/29 01:00:38;;;;;;;8.20;4.00;;;;;;;;;;5054622;28;20616;-81
2021/03/29 01:03:07;;;;;;;10.90;4.40;;;;;;;;;;5054932;28;20636;-79
2021/03/29 01:05:34;;;;;;;11.43;4.13;;;;;;;;;;5055031;28;20179;-79
2021/03/29 01:08:00;;;;;;;11.07;4.10;;;;;;;;;;5054837;28;20587;-79
2021/03/29 01:10:26;;;;;;;12.27;4.03;;;;;;;;;;5054349;28;20218;-79
2021/03/29 01:12:52;;;;;;;14.60;4.03;;;;;;;;;;5054682;28;20256;-79
2021/03/29 01:15:18;;;;;;;11.70;3.83;;;;;;;;;;5055907;28;20218;-80
2021/03/29 01:17:44;;;;;;;12.03;4.13;;;;;;;;;;5055502;28;20572;-79
2021/03/29 01:20:34;;;;;;;11.77;4.50;;;;;;;;;;5055497;28;20179;-81
2021/03/29 01:23:00;;;;;;;12.57;4.03;;;;;;;;;;5070426;28;20191;-80
2021/03/29 01:25:32;;;;;;;6.37;3.13;;;;;;;;;;5056826;28;20546;-81
2021/03/29 01:28:01;;;;;;;11.00;4.10;;;;;;;;;;5056869;28;20202;-79
2021/03/29 01:30:28;;;;;;;9.30;3.97;;;;;;;;;;5055004;28;20186;-80
2021/03/29 01:32:54;;;;;;;14.10;4.03;;;;;;;;;;5054679;28;20187;-79
2021/03/29 01:35:21;;;;;;;11.43;3.50;;;;;;;;;;5071758;28;20629;-80
2021/03/29 01:37:47;;;;;;;10.77;3.67;;;;;;;;;;5054257;28;20183;-80
2021/03/29 01:40:14;;;;;;;8.93;3.50;;;;;;;;;;5054491;28;20215;-80
2021/03/29 01:42:40;;;;;;;11.60;3.33;;;;;;;;;;5055156;28;20173;-80
2021/03/29 01:45:07;;;;;;;7.00;3.00;;;;;;;;;;5054972;28;20181;-80
2021/03/29 01:47:33;;;;;;;6.57;3.43;;;;;;;;;;5055393;28;20194;-80
2021/03/29 01:49:59;;;;;;;7.93;3.40;;;;;;;;;;5055372;28;20201;-79
2021/03/29 01:52:25;;;;;;;8.93;3.27;;;;;;;;;;5054366;28;20213;-79
2021/03/29 01:54:51;;;;;;;8.33;3.47;;;;;;;;;;5054310;28;20583;-79
2021/03/29 01:57:17;;;;;;;9.60;3.23;;;;;;;;;;5056820;28;20175;-80
2021/03/29 01:59:43;;;;;;;9.03;3.10;;;;;;;;;;5058175;28;20296;-80
2021/03/29 02:02:09;;;;;;;8.10;3.10;;;;;;;;;;5057931;28;20274;-79
2021/03/29 02:04:35;;;;;;;7.97;3.27;;;;;;;;;;5058243;28;20180;-79
2021/03/29 02:07:02;;;;;;;12.83;3.30;;;;;;;;;;5058187;28;20180;-79
2021/03/29 02:09:28;;;;;;;11.13;3.37;;;;;;;;;;5057370;28;20272;-80
2021/03/29 02:11:56;;;;;;;9.27;3.20;;;;;;;;;;5057899;28;20187;-79
2021/03/29 02:14:22;;;;;;;10.30;2.90;;;;;;;;;;5057884;28;20266;-79
2021/03/29 02:16:48;;;;;;;10.27;3.17;;;;;;;;;;5057828;28;20553;-79
2021/03/29 02:19:14;;;;;;;9.50;2.90;;;;;;;;;;5057933;28;20194;-79
2021/03/29 02:21:40;;;;;;;9.03;3.30;;;;;;;;;;5058574;28;20182;-79
2021/03/29 02:24:06;;;;;;;12.90;3.03;;;;;;;;;;5075107;28;20687;-79
2021/03/29 02:26:35;;;;;;;9.67;3.17;;;;;;;;;;5058337;28;20331;-80
2021/03/29 02:29:01;;;;;;;10.10;3.10;;;;;;;;;;5058213;28;20265;-80
2021/03/29 02:31:27;;;;;;;11.07;3.57;;;;;;;;;;5058992;28;20182;-80
2021/03/29 02:33:53;;;;;;;9.33;2.63;;;;;;;;;;5063517;28;20551;-80
2021/03/29 02:36:20;;;;;;;9.90;3.33;;;;;;;;;;5057395;28;20676;-81
2021/03/29 02:38:46;;;;;;;9.83;3.10;;;;;;;;;;5057744;28;20197;-81
2021/03/29 02:41:12;;;;;;;10.77;2.77;;;;;;;;;;5057503;28;20182;-80
2021/03/29 02:43:38;;;;;;;9.33;3.13;;;;;;;;;;5057697;28;20178;-80
2021/03/29 02:46:05;;;;;;;7.57;2.80;;;;;;;;;;5057954;28;20185;-80
2021/03/29 02:48:35;;;;;;;8.17;3.10;;;;;;;;;;5057541;28;20294;-81
2021/03/29 02:51:01;;;;;;;8.90;2.77;;;;;;;;;;5058306;28;20207;-82
2021/03/29 02:53:30;;;;;;;9.50;3.10;;;;;;;;;;5057897;28;20173;-80
2021/03/29 02:55:56;;;;;;;5.40;2.50;;;;;;;;;;5057088;28;20252;-80
2021/03/29 02:58:23;;;;;;;10.23;3.00;;;;;;;;;;5057123;28;20288;-79
2021/03/29 03:00:49;;;;;;;8.93;3.30;;;;;;;;;;5057201;28;20635;-79
2021/03/29 03:05:44;;;;;;;9.40;3.33;;;;;;;;;;5029239;28;20257;-79
2021/03/29 03:08:10;;;;;;;11.80;3.03;;;;;;;;;;5032479;28;20186;-80
2021/03/29 03:10:36;;;;;;;10.90;3.47;;;;;;;;;;5013055;28;20171;-79
2021/03/29 03:13:03;;;;;;;7.90;3.10;;;;;;;;;;5020086;28;20222;-78
2021/03/29 03:15:29;;;;;;;10.40;2.83;;;;;;;;;;5020514;28;20218;-77
2021/03/29 03:17:55;;;;;;;10.17;3.07;;;;;;;;;;5036351;28;20261;-80
2021/03/29 03:20:22;;;;;;;7.47;3.20;;;;;;;;;;5036219;28;20180;-77
2021/03/29 03:22:51;;;;;;;8.93;3.03;;;;;;;;;;5035950;28;20185;-77
2021/03/29 03:25:21;;;;;;;9.67;3.30;;;;;;;;;;5036110;28;20183;-79
2021/03/29 03:27:47;;;;;;;7.40;2.93;;;;;;;;;;5052782;28;20204;-78
2021/03/29 03:30:17;;;;;;;7.57;2.60;;;;;;;;;;5053025;28;20623;-79
2021/03/29 03:32:43;;;;;;;10.13;3.37;;;;;;;;;;5035497;28;20689;-79
2021/03/29 03:35:09;;;;;;;10.87;3.00;;;;;;;;;;5035136;28;20268;-80
2021/03/29 03:37:35;;;;;;;10.77;3.83;;;;;;;;;;5051603;28;20177;-78
2021/03/29 03:40:01;;;;;;;9.33;3.30;;;;;;;;;;5034956;28;20188;-80
2021/03/29 03:42:27;;;;;;;11.00;3.03;;;;;;;;;;5051129;28;20171;-79
2021/03/29 03:44:53;;;;;;;10.80;3.47;;;;;;;;;;5034541;28;20228;-80
2021/03/29 03:47:19;;;;;;;10.93;3.27;;;;;;;;;;5034934;28;20188;-78
2021/03/29 03:49:45;;;;;;;11.17;3.50;;;;;;;;;;5051542;28;20182;-80
2021/03/29 03:52:11;;;;;;;12.20;3.77;;;;;;;;;;5041943;28;20213;-78
2021/03/29 03:54:37;;;;;;;11.87;3.23;;;;;;;;;;5015303;28;20209;-79
2021/03/29 03:57:03;;;;;;;9.93;3.20;;;;;;;;;;4998838;28;20214;-78
2021/03/29 03:59:29;;;;;;;11.07;3.63;;;;;;;;;;4998761;28;20666;-78
2021/03/29 04:01:58;;;;;;;10.17;3.60;;;;;;;;;;4998783;28;20180;-78
2021/03/29 04:04:24;;;;;;;13.43;4.37;;;;;;;;;;5014910;28;20242;-79
2021/03/29 04:06:50;;;;;;;9.13;3.17;;;;;;;;;;4999277;28;20190;-79
2021/03/29 04:09:17;;;;;;;11.83;3.43;;;;;;;;;;5015103;28;20180;-80
2021/03/29 04:11:49;;;;;;;9.53;3.30;;;;;;;;;;4998653;28;20180;-78
2021/03/29 04:14:15;;;;;;;8.97;3.20;;;;;;;;;;4998793;28;20203;-78
2021/03/29 04:16:41;;;;;;;8.43;3.50;;;;;;;;;;4998789;28;20700;-78
2021/03/29 04:19:07;;;;;;;8.60;3.60;;;;;;;;;;4997549;28;20592;-78
2021/03/29 04:21:34;;;;;;;10.23;3.23;;;;;;;;;;4998469;28;20185;-77
2021/03/29 04:23:59;;;;;;;9.20;3.03;;;;;;;;;;4998488;28;20199;-78
2021/03/29 04:26:25;;;;;;;9.43;2.93;;;;;;;;;;5014501;28;20191;-77
2021/03/29 04:28:51;;;;;;;9.07;3.07;;;;;;;;;;5014625;28;20172;-78
2021/03/29 04:31:17;;;;;;;8.47;2.93;;;;;;;;;;4997855;28;20218;-78
2021/03/29 04:33:43;;;;;;;8.33;3.03;;;;;;;;;;4998260;28;20674;-77
2021/03/29 04:36:09;;;;;;;6.73;2.80;;;;;;;;;;5015550;28;20487;-77
2021/03/29 04:38:35;;;;;;;7.43;2.87;;;;;;;;;;5013939;28;20179;-77
2021/03/29 04:41:01;;;;;;;7.87;2.87;;;;;;;;;;5014381;28;20535;-77
2021/03/29 04:43:27;;;;;;;7.97;3.00;;;;;;;;;;5008038;28;20579;-77
2021/03/29 04:45:53;;;;;;;9.47;2.73;;;;;;;;;;5030340;28;20578;-79
2021/03/29 04:48:19;;;;;;;9.70;3.17;;;;;;;;;;5034734;28;20181;-79
2021/03/29 04:50:45;;;;;;;7.60;3.03;;;;;;;;;;5018863;28;20695;-79
2021/03/29 04:53:11;;;;;;;9.20;3.00;;;;;;;;;;5035921;28;20661;-78
2021/03/29 04:55:37;;;;;;;8.67;3.20;;;;;;;;;;5034403;28;20233;-79
2021/03/29 04:58:03;;;;;;;9.67;2.63;;;;;;;;;;5033511;28;20175;-80
2021/03/29 05:00:29;;;;;;;9.23;2.90;;;;;;;;;;5033725;28;20179;-79
2021/03/29 05:02:55;;;;;;;10.33;3.17;;;;;;;;;;5035088;28;20305;-78
2021/03/29 05:05:21;;;;;;;7.13;2.90;;;;;;;;;;5031524;28;20218;-78
2021/03/29 05:07:47;;;;;;;11.10;3.23;;;;;;;;;;5017631;28;20587;-79
2021/03/29 05:10:13;;;;;;;9.07;3.20;;;;;;;;;;5018875;28;20184;-79
2021/03/29 05:12:39;;;;;;;9.20;3.17;;;;;;;;;;5018648;28;20185;-79
2021/03/29 05:15:08;;;;;;;7.77;2.53;;;;;;;;;;5035058;28;20751;-79
2021/03/29 05:17:34;;;;;;;9.77;3.17;;;;;;;;;;5018199;28;20213;-79
2021/03/29 05:20:01;;;;;;;9.53;2.93;;;;;;;;;;5017196;28;20179;-78
2021/03/29 05:22:27;;;;;;;6.97;2.93;;;;;;;;;;5016735;28;20527;-78
2021/03/29 05:24:53;;;;;;;7.07;3.17;;;;;;;;;;5015482;28;20204;-79
2021/03/29 05:27:19;;;;;;;8.53;3.10;;;;;;;;;;5015356;28;20198;-79
2021/03/29 05:29:46;;;;;;;8.03;3.10;;;;;;;;;;5033090;28;20187;-79
2021/03/29 05:32:13;;;;;;;6.77;2.63;;;;;;;;;;5015972;28;20219;-80
2021/03/29 05:34:39;;;;;;;8.07;2.67;;;;;;;;;;5025690;28;20290;-79
2021/03/29 05:37:05;;;;;;;7.43;2.70;;;;;;;;;;5020443;28;20764;-79
2021/03/29 05:39:31;;;;;;;9.87;2.70;;;;;;;;;;5030669;28;20222;-79
2021/03/29 05:41:57;;;;;;;9.20;2.83;;;;;;;;;;5028005;28;20199;-80
2021/03/29 05:44:23;;;;;;;10.07;3.70;;;;;;;;;;5011979;28;20229;-77
2021/03/29 05:46:49;;;;;;;12.13;3.60;;;;;;;;;;5031307;28;20183;-78
2021/03/29 05:49:15;;;;;;;9.77;3.00;;;;;;;;;;5031417;28;20175;-80
2021/03/29 05:51:41;;;;;;;9.20;3.13;;;;;;;;;;5014768;28;20346;-79
2021/03/29 05:54:08;;;;;;;10.83;2.83;;;;;;;;;;5014746;28;20205;-79
2021/03/29 05:56:39;;;;;;;10.80;3.17;;;;;;;;;;5015109;28;20202;-78
2021/03/29 05:59:18;;;;;;;8.40;2.70;;;;;;;;;;5014896;28;20563;-79
2021/03/29 06:01:54;;;;;;;11.87;2.97;;;;;;;;;;5016078;28;20183;-78
2021/03/29 06:04:39;;;;;;;12.63;2.70;;;;;;;;;;5028712;28;20226;-79
2021/03/29 06:07:26;;;;;;;8.57;2.50;;;;;;;;;;5027287;28;20176;-79
2021/03/29 06:09:52;;;;;;;9.97;2.70;;;;;;;;;;5031172;28;20201;-79
2021/03/29 06:12:19;;;;;;;8.17;2.83;;;;;;;;;;5030399;28;20190;-78
2021/03/29 06:14:45;;;;;;;8.23;2.77;;;;;;;;;;5008487;28;20220;-77
2021/03/29 06:17:12;;;;;;;8.33;2.70;;;;;;;;;;5020986;28;20186;-76
2021/03/29 06:19:54;;;;;;;8.70;2.80;;;;;;;;;;5026201;28;20219;-78
2021/03/29 06:22:23;;;;;;;8.27;2.53;;;;;;;;;;5027220;28;20616;-77
2021/03/29 06:24:52;;;;;;;8.57;2.47;;;;;;;;;;5034477;28;20216;-78
2021/03/29 06:27:18;;;;;;;11.10;3.00;;;;;;;;;;5029370;28;20186;-78
2021/03/29 06:29:44;;;;;;;8.77;2.77;;;;;;;;;;5032486;28;20268;-78
2021/03/29 06:32:10;;;;;;;8.13;2.37;;;;;;;;;;5031679;28;20243;-78
2021/03/29 06:34:36;;;;;;;10.00;2.90;;;;;;;;;;5031204;28;20701;-78
2021/03/29 06:37:06;;;;;;;7.13;2.63;;;;;;;;;;5030381;28;20204;-79
2021/03/29 06:39:35;;;;;;;7.03;2.70;;;;;;;;;;5031370;28;20205;-78
2021/03/29 06:42:01;;;;;;;8.00;2.30;;;;;;;;;;5031105;28;20182;-79
2021/03/29 06:44:27;;;;;;;10.47;2.73;;;;;;;;;;5033885;28;20253;-78
2021/03/29 06:47:06;;;;;;;9.13;2.53;;;;;;;;;;5034062;28;20205;-79
2021/03/29 06:49:41;;;;;;;8.03;2.60;;;;;;;;;;5035885;28;20585;-79
2021/03/29 06:52:39;;;;;;;9.10;2.80;;;;;;;;;;5035418;28;20184;-79
2021/03/29 06:55:18;;;;;;;9.27;2.33;;;;;;;;;;4992835;28;20225;-80
2021/03/29 06:57:44;;;;;;;6.47;2.60;;;;;;;;;;5037087;28;20177;-80
2021/03/29 07:00:12;;;;;;;9.37;2.63;;;;;;;;;;5035519;28;20545;-80
2021/03/29 07:02:39;;;;;;;9.93;2.60;;;;;;;;;;5035892;28;20240;-79
2021/03/29 07:05:05;;;;;;;11.90;2.70;;;;;;;;;;5033791;28;20275;-79
2021/03/29 07:07:31;;;;;;;7.30;2.33;;;;;;;;;;5035305;28;20187;-79
2021/03/29 07:09:58;;;;;;;8.47;2.60;;;;;;;;;;5035524;28;20193;-79
2021/03/29 07:12:25;;;;;;;7.40;2.80;;;;;;;;;;5017815;28;20190;-79
2021/03/29 07:14:51;;;;;;;7.77;2.53;;;;;;;;;;5019604;28;20221;-79
2021/03/29 07:17:17;;;;;;;5.33;2.63;;;;;;;;;;5035426;28;20182;-79
2021/03/29 07:19:43;;;;;;;8.27;2.60;;;;;;;;;;5019054;28;20774;-79
2021/03/29 07:22:09;;;;;;;8.23;2.70;;;;;;;;;;5017297;28;20272;-78
2021/03/29 07:24:35;;;;;;;7.67;2.80;;;;;;;;;;5034752;28;20264;-79
2021/03/29 07:27:02;;;;;;;8.77;2.70;;;;;;;;;;5035128;28;20211;-79
2021/03/29 07:29:32;;;;;;;9.50;2.90;;;;;;;;;;5034514;28;20180;-79
2021/03/29 07:32:18;;;;;;;11.20;2.83;;;;;;;;;;5034288;28;20181;-79
2021/03/29 07:34:44;;;;;;;8.30;2.40;;;;;;;;;;5035973;28;20723;-80
2021/03/29 07:37:25;;;;;;;8.77;2.60;;;;;;;;;;5034275;28;20530;-79
2021/03/29 07:39:51;;;;;;;7.13;2.43;;;;;;;;;;5033295;28;20174;-78
2021/03/29 07:42:23;;;;;;;8.83;2.57;;;;;;;;;;5033925;28;20256;-79
2021/03/29 07:44:56;;;;;;;9.13;2.47;;;;;;;;;;5050207;28;20649;-78
2021/03/29 07:47:38;;;;;;;7.90;2.53;;;;;;;;;;5034422;28;20552;-78
2021/03/29 07:50:04;;;;;;;9.73;2.90;;;;;;;;;;5034888;28;20186;-78
2021/03/29 07:52:35;;;;;;;8.93;2.60;;;;;;;;;;5035864;28;20183;-79
2021/03/29 07:55:02;;;;;;;9.10;2.87;;;;;;;;;;5034600;28;20219;-79
2021/03/29 07:57:44;;;;;;;7.43;2.60;;;;;;;;;;5034456;28;20672;-79
2021/03/29 08:00:10;;;;;;;7.63;2.80;;;;;;;;;;5035427;28;20266;-78
2021/03/29 08:02:36;;;;;;;6.03;2.30;;;;;;;;;;5034281;28;20747;-79
2021/03/29 08:05:06;;;;;;;10.73;2.67;;;;;;;;;;5034721;28;20226;-79
2021/03/29 08:07:36;;;;;;;5.27;2.50;;;;;;;;;;5034369;28;20183;-79
2021/03/29 08:10:02;;;;;;;6.00;2.40;;;;;;;;;;5034344;28;20190;-78
2021/03/29 08:12:28;;;;;;;7.90;3.17;;;;;;;;;;5034061;28;20182;-79
2021/03/29 08:14:54;;;;;;;8.83;2.43;;;;;;;;;;5034023;28;20560;-79
2021/03/29 08:17:36;;;;;;;8.10;2.90;;;;;;;;;;5050892;28;20187;-78
2021/03/29 08:20:06;;;;;;;7.80;2.50;;;;;;;;;;5017674;28;20179;-78
2021/03/29 08:22:32;;;;;;;14.17;2.90;;;;;;;;;;5033712;28;20178;-78
2021/03/29 08:24:58;;;;;;;7.03;2.67;;;;;;;;;;5035361;28;20182;-79
2021/03/29 08:27:27;;;;;;;7.07;2.27;;;;;;;;;;5034238;28;20185;-79
2021/03/29 08:29:55;;;;;;;7.73;2.30;;;;;;;;;;5034794;28;20175;-78
2021/03/29 08:32:21;;;;;;;7.70;2.60;;;;;;;;;;5033531;28;20186;-78
2021/03/29 08:34:53;;;;;;;6.37;2.37;;;;;;;;;;5033556;28;20206;-78
2021/03/29 08:37:35;;;;;;;5.83;2.40;;;;;;;;;;5034834;28;20232;-78
2021/03/29 08:40:02;;;;;;;5.43;2.30;;;;;;;;;;5034832;28;20634;-79
2021/03/29 08:42:32;;;;;;;6.13;2.57;;;;;;;;;;5034522;28;20222;-78
2021/03/29 08:44:58;;;;;;;7.53;2.70;;;;;;;;;;5014879;28;20213;-78
2021/03/29 08:47:24;;;;;;;9.87;2.70;;;;;;;;;;5032818;28;20186;-80
2021/03/29 08:49:54;;;;;;;7.20;2.30;;;;;;;;;;5032758;28;20179;-80
2021/03/29 08:52:20;;;;;;;6.83;2.43;;;;;;;;;;5017482;28;20237;-80
2021/03/29 08:54:49;;;;;;;7.00;2.50;;;;;;;;;;5033335;28;20198;-78
2021/03/29 08:57:15;;;;;;;6.27;2.10;;;;;;;;;;5016471;28;20627;-77
2021/03/29 08:59:41;;;;;;;4.93;2.70;;;;;;;;;;5032794;28;20186;-76
2021/03/29 09:02:16;;;;;;;7.37;2.07;;;;;;;;;;5033438;28;20175;-78
2021/03/29 09:04:52;;;;;;;7.10;2.47;;;;;;;;;;5033394;28;20214;-78
2021/03/29 09:07:18;;;;;;;9.53;2.33;;;;;;;;;;5033970;28;20186;-81
2021/03/29 09:09:45;;;;;;;6.97;2.23;;;;;;;;;;5030719;28;20568;-78
2021/03/29 09:12:27;;;;;;;5.90;2.10;;;;;;;;;;5033487;28;20197;-80
2021/03/29 09:14:53;;;;;;;6.60;2.20;;;;;;;;;;5016617;28;20260;-79
2021/03/29 09:17:26;;;;;;;5.63;2.30;;;;;;;;;;5027341;28;20655;-81
2021/03/29 09:19:52;;;;;;;7.67;2.20;;;;;;;;;;5032265;28;20582;-80
2021/03/29 09:22:28;;;;;;;6.53;2.23;;;;;;;;;;5033738;28;20183;-79
2021/03/29 09:24:54;;;;;;;10.73;2.40;;;;;;;;;;5018237;28;20640;-79
2021/03/29 09:27:27;;;;;;;8.37;2.33;;;;;;;;;;5034791;28;20175;-79
2021/03/29 09:29:53;;;;;;;7.60;2.30;;;;;;;;;;5033044;28;20159;-78
2021/03/29 09:32:19;;;;;;;4.50;2.17;;;;;;;;;;5032875;28;20234;-80
2021/03/29 09:34:49;;;;;;;10.27;2.40;;;;;;;;;;5033184;28;20210;-80
2021/03/29 09:37:22;;;;;;;12.67;2.10;;;;;;;;;;5017708;28;20211;-79
2021/03/29 09:39:49;;;;;;;25.70;2.83;;;;;;;;;;5035126;28;20175;-77
2021/03/29 09:42:16;;;;;;;7.53;2.00;;;;;;;;;;5016280;28;20209;-78
2021/03/29 09:44:43;;;;;;;4.83;2.00;;;;;;;;;;5033566;28;20195;-79
2021/03/29 09:47:09;;;;;;;7.40;1.90;;;;;;;;;;5032195;28;20677;-79
2021/03/29 09:49:47;;;;;;;6.27;2.10;;;;;;;;;;5011223;28;20183;-79
2021/03/29 09:52:15;;;;;;;5.50;1.93;;;;;;;;;;5030696;28;20192;-79
2021/03/29 09:54:48;;;;;;;5.57;1.93;;;19.10;91.50;;;;;;5027670;28;20748;-79
2021/03/29 09:57:15;;;;;;;9.03;1.90;;;18.70;91.10;;;;;;5017138;28;20163;-78
2021/03/29 09:59:43;;;;;;;8.07;2.27;;;18.90;91.70;;;;;;5001423;28;20185;-78
2021/03/29 10:02:22;;;;;;;10.70;2.20;;;19.00;92.20;;;;;;4998842;28;20213;-78
2021/03/29 10:05:00;;;;;;;4.50;1.80;;;19.80;92.10;;;;;;5016226;28;20272;-80
2021/03/29 10:07:26;;;;;;;4.97;2.00;;;20.20;90.90;;;;;;5000217;28;20245;-79
2021/03/29 10:10:01;;;;;;;6.03;2.00;;;20.20;90.30;;;;;;4999608;28;20186;-79
2021/03/29 10:12:27;;;;;;;4.87;1.90;;;19.70;90.10;;;;;;5012743;28;20595;-79
2021/03/29 10:15:06;;;;;;;6.50;1.83;;;19.50;89.90;;;;;;4999507;28;20213;-79
2021/03/29 10:17:32;;;;;;;5.43;1.80;;;19.10;89.40;;;;;;5031801;28;20237;-80
2021/03/29 10:20:08;;;;;;;4.37;2.10;;;18.90;90.00;;;;;;5028789;28;20209;-79
2021/03/29 10:22:34;;;;;;;6.67;1.80;;;19.30;90.60;;;;;;5014583;28;20304;-80
2021/03/29 10:25:16;;;;;;;6.77;2.27;;;19.40;90.30;;;;;;5019245;28;20971;-80
2021/03/29 10:27:46;;;;;;;9.13;2.07;;;19.20;90.00;;;;;;5036847;28;20204;-79
2021/03/29 10:30:18;;;;;;;6.47;1.83;;;19.40;90.40;;;;;;5035492;28;20193;-80
2021/03/29 10:32:43;;;;;;;7.20;1.70;;;19.70;90.20;;;;;;5037233;28;20270;-80
2021/03/29 10:35:09;;;;;;;5.13;1.70;;;19.40;86.90;;;;;;5019171;28;20737;-79
2021/03/29 10:37:35;;;;;;;6.10;1.70;;;18.90;86.50;;;;;;5003141;28;20199;-80
2021/03/29 10:40:01;;;;;;;8.57;1.97;;;18.80;87.20;;;;;;5019615;28;20191;-78
2021/03/29 10:42:30;;;;;;;5.80;1.70;;;18.70;87.30;;;;;;5018604;28;20206;-80
2021/03/29 10:44:56;;;;;;;5.90;2.00;;;18.90;88.40;;;;;;5019323;28;20285;-81
2021/03/29 10:47:22;;;;;;;5.27;1.60;;;19.00;86.00;;;;;;5002222;28;20345;-80
2021/03/29 10:49:48;;;;;;;8.93;1.87;;;18.60;85.30;;;;;;5035268;28;20186;-79
2021/03/29 10:52:13;;;;;;;4.87;1.80;;;18.70;85.80;;;;;;5019481;28;20179;-79
2021/03/29 10:54:39;;;;;;;5.97;1.90;;;18.80;85.90;;;;;;5017958;28;20669;-79
2021/03/29 10:57:05;;;;;;;5.90;1.80;;;18.80;84.30;;;;;;5006936;28;20283;-80
2021/03/29 10:59:31;;;;;;;5.10;1.47;;;18.90;85.40;;;;;;5014039;28;20163;-81
2021/03/29 11:01:56;;;;;;;7.03;1.77;;;19.30;89.90;;;;;;5003644;28;20178;-79
2021/03/29 11:04:22;;;;;;;4.67;1.80;;;19.60;84.50;;;;;;5018175;28;20293;-78
2021/03/29 11:06:47;;;;;;;8.13;1.93;;;19.70;83.80;;;;;;5017851;28;20191;-78
2021/03/29 11:09:13;;;;;;;6.00;1.80;;;19.70;84.30;;;;;;5034830;28;20167;-78
2021/03/29 11:11:39;;;;;;;7.80;2.00;;;19.50;84.80;;;;;;5041030;28;20654;-78
2021/03/29 11:14:04;;;;;;;5.70;2.57;;;19.50;87.70;;;;;;5057800;22;20227;-75
2021/03/29 11:16:30;;;;;;;7.57;2.33;;;19.60;89.70;;;;;;5032944;28;20206;-75
2021/03/29 11:18:56;;;;;;;7.07;2.10;;;19.80;90.20;;;;;;5034045;28;20178;-75
2021/03/29 11:21:21;;;;;;;10.13;2.47;;;19.80;89.20;;;;;;5038910;28;20853;-75
2021/03/29 11:23:47;;;;;;;6.03;2.40;;;19.80;90.50;;;;;;5012743;28;20649;-75
2021/03/29 11:26:12;;;;;;;7.07;2.47;;;19.80;89.00;;;;;;5015535;28;20192;-74
2021/03/29 11:28:38;;;;;;;7.87;2.57;;;19.70;89.20;;;;;;5042146;28;20213;-75
2021/03/29 11:31:04;;;;;;;5.67;2.13;;;19.50;90.10;;;;;;4996980;28;20188;-75
2021/03/29 11:33:29;;;;;;;5.53;2.23;;;19.80;90.90;;;;;;5010963;28;20179;-75
2021/03/29 11:35:55;;;;;;;7.70;2.53;;;19.90;88.60;;;;;;4996226;28;20223;-75
2021/03/29 11:38:20;;;;;;;4.73;2.30;;;19.90;89.20;;;;;;5013348;28;20182;-75
2021/03/29 11:40:46;;;;;;;9.10;2.33;;;20.00;88.00;;;;;;4996214;28;20175;-75
2021/03/29 11:43:12;;;;;;;5.43;1.90;;;20.00;89.00;;;;;;5011711;28;20242;-75
2021/03/29 11:45:37;;;;;;;5.23;1.47;;;20.10;85.50;;;;;;5008911;28;20206;-75
2021/03/29 11:48:03;;;;;;;8.67;1.90;;;20.30;85.90;;;;;;5013793;28;20186;-75
2021/03/29 11:50:29;;;;;;;3.70;1.60;;;20.50;82.40;;;;;;5010626;28;20269;-75
2021/03/29 11:52:54;;;;;;;5.43;1.93;;;20.60;81.30;;;;;;4994181;28;20183;-76
2021/03/29 11:55:20;;;;;;;7.23;2.50;;;20.60;81.10;;;;;;5011551;28;20298;-76
2021/03/29 11:57:46;;;;;;;6.23;2.27;;;20.80;83.70;;;;;;5011261;28;20198;-76
2021/03/29 12:00:21;;;;;;;5.03;1.73;;;20.70;81.90;;;;;;4996285;28;20635;-76
2021/03/29 12:03:05;;;;;;;9.00;2.30;;;20.60;80.60;;;;;;5012512;28;20175;-75
2021/03/29 12:05:35;;;;;;;6.77;1.93;;;20.60;82.90;;;;;;5012607;28;20199;-75
2021/03/29 12:08:14;;;;;;;7.17;1.87;;;20.80;82.20;;;;;;4996554;28;20207;-75
2021/03/29 12:13:24;;;;;;;5.03;1.80;;;21.30;78.00;;;;;;5012768;28;20280;-75
2021/03/29 12:15:51;;;;;;;7.00;2.00;;;21.50;76.50;;;;;;5012216;28;20209;-75
2021/03/29 12:18:20;;;;;;;6.07;2.00;;;21.60;75.50;;;;;;5012227;28;20171;-75
2021/03/29 12:20:46;;;;;;;6.10;1.90;;;21.80;77.50;;;;;;5012534;28;20583;-75
2021/03/29 12:23:12;;;;;;;5.27;1.90;;;21.70;74.60;;;;;;4995823;28;20175;-76
2021/03/29 12:25:38;;;;;;;8.00;1.90;;;21.70;73.10;;;;;;4995510;28;20258;-75
2021/03/29 12:28:03;;;;;;;4.77;1.93;;;21.40;69.80;;;;;;5012203;28;20183;-75
2021/03/29 12:30:29;;;;;;;4.93;1.97;;;21.20;69.50;;;;;;5012154;28;20612;-75
2021/03/29 12:32:55;;;;;;;6.00;1.90;;;21.20;72.80;;;;;;4995431;28;20270;-75
2021/03/29 12:35:22;;;;;;;7.40;1.60;;;21.20;70.60;;;;;;5012069;28;20243;-75
2021/03/29 12:37:51;;;;;;;4.27;1.70;;;21.20;71.30;;;;;;5010623;28;20548;-75
2021/03/29 12:40:24;;;;;;;3.80;1.73;;;21.10;69.10;;;;;;5000962;28;20241;-75
2021/03/29 12:45:25;;;;;;;6.03;2.00;;;20.70;69.10;;;;;;5013491;28;20210;-75
2021/03/29 12:47:51;;;;;;;3.60;1.63;;;20.50;67.90;;;;;;5028181;28;20211;-75
2021/03/29 12:50:18;;;;;;;3.07;1.90;;;20.50;68.50;;;;;;5011723;28;20186;-75
2021/03/29 12:52:44;;;;;;;4.80;1.80;;;20.80;70.40;;;;;;5011919;28;20175;-75
2021/03/29 12:55:14;;;;;;;7.03;2.00;;;21.10;69.50;;;;;;5005558;28;20203;-75
2021/03/29 12:57:40;;;;;;;5.00;2.10;;;21.10;68.10;;;;;;5011276;28;20203;-76
2021/03/29 13:00:07;;;;;;;8.17;1.83;;;20.90;68.70;;;;;;5007950;28;20180;-75
2021/03/29 13:02:33;;;;;;;4.77;1.70;;;21.00;71.10;;;;;;5023885;28;20670;-75
2021/03/29 13:04:59;;;;;;;8.87;2.33;;;21.30;69.80;;;;;;5037868;28;20195;-75
2021/03/29 13:07:48;;;;;;;5.47;1.87;;;21.30;71.30;;;;;;4977030;28;20187;-76
2021/03/29 13:12:58;;;;;;;5.67;1.93;;;21.60;69.70;;;;;;5011508;28;20650;-75
2021/03/29 13:15:23;;;;;;;5.60;1.73;;;21.70;68.20;;;;;;5011221;28;20282;-76
2021/03/29 13:17:49;;;;;;;5.67;2.03;;;21.30;69.20;;;;;;5011357;28;20314;-75
2021/03/29 13:20:18;;;;;;;6.20;1.87;;;21.30;71.90;;;;;;5012165;28;20191;-75
2021/03/29 13:22:46;;;;;;;5.73;2.10;;;21.20;69.10;;;;;;4995486;28;20552;-76
2021/03/29 13:25:12;;;;;;;3.87;1.70;;;20.90;70.20;;;;;;5013025;28;20697;-76
2021/03/29 13:27:38;;;;;;;6.27;1.77;;;21.00;71.00;;;;;;5010645;28;20266;-76
2021/03/29 13:30:08;;;;;;;4.90;1.73;;;21.20;70.50;;;;;;5018080;28;20228;-76
2021/03/29 13:32:34;;;;;;;3.97;1.73;;;21.20;69.70;;;;;;5013583;28;20202;-76
2021/03/29 13:34:59;;;;;;;5.37;2.00;;;21.10;72.50;;;;;;5000917;28;20887;-76
2021/03/29 13:37:25;;;;;;;4.77;1.97;;;21.10;71.10;;;;;;5023601;28;20198;-76
2021/03/29 13:39:54;;;;;;;5.20;1.70;;;21.20;73.20;;;;;;4998801;28;20203;-76
2021/03/29 13:42:20;;;;;;;6.37;2.30;;;21.50;74.10;;;;;;5000298;28;20239;-76
2021/03/29 13:44:45;;;;;;;3.70;1.50;;;21.50;70.30;;;;;;4995275;28;20202;-77
2021/03/29 13:47:11;;;;;;;7.80;2.07;;;21.30;70.30;;;;;;5011342;28;20175;-77
2021/03/29 13:49:37;;;;;;;4.83;1.83;;;21.10;70.00;;;;;;5010811;28;20175;-77
2021/03/29 13:52:03;;;;;;;5.67;2.30;;;21.10;71.20;;;;;;4999187;28;20229;-79
2021/03/29 13:54:31;;;;;;;3.17;1.57;;;21.20;70.80;;;;;;5001437;28;20671;-77
2021/03/29 13:56:56;;;;;;;4.23;1.93;;;21.30;72.80;;;;;;5019484;28;20172;-77
2021/03/29 13:59:22;;;;;;;4.97;2.00;;;21.20;70.60;;;;;;5000663;28;20662;-77
2021/03/29 14:01:49;;;;;;;4.77;1.80;;;21.10;70.10;;;;;;5014974;28;20171;-76
2021/03/29 14:04:14;;;;;;;8.17;2.40;;;21.30;70.10;;;;;;5013999;28;20204;-76
2021/03/29 14:06:40;;;;;;;4.57;1.80;;;21.40;69.20;;;;;;4999040;28;20302;-78
2021/03/29 14:09:07;;;;;;;3.87;1.70;;;22.00;71.10;;;;;;5014724;28;20646;-77
2021/03/29 14:11:32;;;;;;;6.70;2.00;;;22.50;69.60;;;;;;5014876;28;20669;-78
2021/03/29 14:14:00;;;;;;;4.80;1.83;;;22.70;67.10;;;;;;5015291;28;20235;-78
2021/03/29 14:16:26;;;;;;;4.70;2.07;;;22.70;67.80;;;;;;5017017;28;20215;-78